createdAt,value
2016-02-26T00:00:03.872Z,99.99
2016-02-26T00:01:03.249Z,99.99
2016-02-26T00:01:44.082Z,99.99
2016-02-26T00:03:19.318Z,99.99
2016-02-26T00:03:53.758Z,99.99
2016-02-26T00:05:53.842Z,99.99
2016-02-26T00:06:28.157Z,99.99
2016-02-26T00:08:40.850Z,99.99
2016-02-26T00:09:37.914Z,99.99
2016-02-26T00:10:54.573Z,99.99
2016-02-26T00:11:45.108Z,99.99
2016-02-26T00:12:45.126Z,99.99
2016-02-26T00:14:16.425Z,99.99
2016-02-26T00:15:29.009Z,99.99
2016-02-26T00:17:00.575Z,99.99
2016-02-26T00:17:44.717Z,99.99
2016-02-26T00:18:44.705Z,99.99
2016-02-26T00:19:50.989Z,99.99
2016-02-26T00:20:45.320Z,99.99
2016-02-26T00:21:44.744Z,99.99
2016-02-26T00:23:07.028Z,99.99
2016-02-26T00:25:09.533Z,99.99
2016-02-26T00:26:09.536Z,99.99
2016-02-26T00:28:09.605Z,99.99
2016-02-26T00:28:35.200Z,99.99
2016-02-26T00:29:22.374Z,99.99
2016-02-26T00:30:48.112Z,99.99
2016-02-26T00:31:32.052Z,99.99
2016-02-26T00:32:51.243Z,99.99
2016-02-26T00:34:06.432Z,99.99
2016-02-26T00:34:56.576Z,99.99
2016-02-26T00:36:09.329Z,99.99
2016-02-26T00:36:56.596Z,99.99
2016-02-26T00:38:22.305Z,99.99
2016-02-26T00:39:06.195Z,99.99
2016-02-26T00:40:25.420Z,99.99
2016-02-26T00:41:40.626Z,99.99
2016-02-26T00:42:40.644Z,99.99
2016-02-26T00:43:40.647Z,99.99
2016-02-26T00:44:59.931Z,99.99
2016-02-26T00:45:53.418Z,99.99
2016-02-26T00:48:08.689Z,99.99
2016-02-26T00:49:08.691Z,99.99
2016-02-26T00:50:08.694Z,99.99
2016-02-26T00:51:21.509Z,99.99
2016-02-26T00:52:21.497Z,99.99
2016-02-26T00:53:34.424Z,99.99
2016-02-26T00:56:15.319Z,99.99
2016-02-26T00:57:40.982Z,99.99
2016-02-26T00:58:50.578Z,99.99
2016-02-26T01:00:00.144Z,99.99
2016-02-26T01:00:34.521Z,99.99
2016-02-26T01:01:34.492Z,99.99
2016-02-26T01:02:44.057Z,99.99
2016-02-26T01:03:44.045Z,99.99
2016-02-26T01:04:50.141Z,99.99
2016-02-26T01:05:47.129Z,99.99
2016-02-26T01:07:06.334Z,99.99
2016-02-26T01:07:47.165Z,99.99
2016-02-26T01:09:12.839Z,99.99
2016-02-26T01:09:47.170Z,99.99
2016-02-26T01:11:19.907Z,99.99
2016-02-26T01:11:58.148Z,99.99
2016-02-26T01:12:58.155Z,99.99
2016-02-26T01:13:58.239Z,99.99
2016-02-26T01:15:29.454Z,99.99
2016-02-26T01:16:07.813Z,99.99
2016-02-26T01:17:39.012Z,99.99
2016-02-26T01:18:48.574Z,99.99
2016-02-26T01:19:22.902Z,99.99
2016-02-26T01:21:35.478Z,99.99
2016-02-26T01:23:41.980Z,99.99
2016-02-26T01:25:57.185Z,99.99
2016-02-26T01:26:57.062Z,99.99
2016-02-26T01:28:28.504Z,99.99
2016-02-26T01:29:12.394Z,99.99
2016-02-26T01:30:12.490Z,99.99
2016-02-26T01:32:27.591Z,99.99
2016-02-26T01:33:27.609Z,99.99
2016-02-26T01:34:59.566Z,99.99
2016-02-26T01:35:43.646Z,99.99
2016-02-26T01:36:43.633Z,99.99
2016-02-26T01:38:09.573Z,99.99
2016-02-26T01:38:53.451Z,99.99
2016-02-26T01:40:03.001Z,99.99
2016-02-26T01:41:03.097Z,99.99
2016-02-26T01:42:06.256Z,99.99
2016-02-26T01:43:31.871Z,99.99
2016-02-26T01:44:13.168Z,99.99
2016-02-26T01:45:41.423Z,99.99
2016-02-26T01:46:10.188Z,99.99
2016-02-26T01:47:10.160Z,99.99
2016-02-26T01:48:16.429Z,99.99
2016-02-26T01:49:16.446Z,99.99
2016-02-26T01:50:29.905Z,99.99
2016-02-26T01:51:45.501Z,99.99
2016-02-26T01:52:30.770Z,99.99
2016-02-26T01:53:29.382Z,99.99
2016-02-26T01:54:48.587Z,99.99
2016-02-26T01:55:42.137Z,99.99
2016-02-26T01:57:00.718Z,99.99
2016-02-26T01:57:42.175Z,99.99
2016-02-26T01:58:29.442Z,99.99
2016-02-26T02:00:00.742Z,99.99
2016-02-26T02:00:38.994Z,99.99
2016-02-26T02:01:38.997Z,99.99
2016-02-26T02:02:51.766Z,99.99
2016-02-26T02:03:39.049Z,99.99
2016-02-26T02:05:03.974Z,99.99
2016-02-26T02:05:47.852Z,99.99
2016-02-26T02:07:07.058Z,99.99
2016-02-26T02:07:47.857Z,99.99
2016-02-26T02:08:47.875Z,99.99
2016-02-26T02:09:57.456Z,99.99
2016-02-26T02:10:57.475Z,99.99
2016-02-26T02:11:57.462Z,99.99
2016-02-26T02:12:58.965Z,99.99
2016-02-26T02:13:57.513Z,99.99
2016-02-26T02:15:16.704Z,99.99
2016-02-26T02:16:05.223Z,99.99
2016-02-26T02:17:23.193Z,99.99
2016-02-26T02:17:57.540Z,99.99
2016-02-26T02:19:29.467Z,99.99
2016-02-26T02:20:13.342Z,99.99
2016-02-26T02:21:13.376Z,99.99
2016-02-26T02:23:10.397Z,99.99
2016-02-26T02:23:45.197Z,99.99
2016-02-26T02:24:26.259Z,99.99
2016-02-26T02:25:26.028Z,99.99
2016-02-26T02:26:26.078Z,99.99
2016-02-26T02:27:26.236Z,99.99
2016-02-26T02:28:26.255Z,99.99
2016-02-26T02:29:32.339Z,99.99
2016-02-26T02:30:26.073Z,99.99
2016-02-26T02:31:32.562Z,99.99
2016-02-26T02:32:26.094Z,99.99
2016-02-26T02:33:26.111Z,99.99
2016-02-26T02:34:38.836Z,99.99
2016-02-26T02:35:26.117Z,99.99
2016-02-26T02:36:26.136Z,99.99
2016-02-26T02:37:32.422Z,99.99
2016-02-26T02:38:26.360Z,99.99
2016-02-26T02:39:32.427Z,99.99
2016-02-26T02:40:26.396Z,99.99
2016-02-26T02:41:26.211Z,99.99
2016-02-26T02:42:38.936Z,99.99
2016-02-26T02:43:26.217Z,99.99
2016-02-26T02:44:26.219Z,99.99
2016-02-26T02:45:26.237Z,99.99
2016-02-26T02:46:26.256Z,99.99
2016-02-26T02:47:26.478Z,99.99
2016-02-26T02:48:26.277Z,99.99
2016-02-26T02:49:26.296Z,99.99
2016-02-26T02:50:39.020Z,99.99
2016-02-26T02:51:32.584Z,99.99
2016-02-26T02:52:26.319Z,99.99
2016-02-26T02:53:29.434Z,99.99
2016-02-26T02:54:29.453Z,99.99
2016-02-26T02:55:42.174Z,99.99
2016-02-26T02:56:42.192Z,99.99
2016-02-26T02:57:29.460Z,99.99
2016-02-26T02:58:48.697Z,99.99
2016-02-26T02:59:55.170Z,99.99
2016-02-26T03:02:10.378Z,99.99
2016-02-26T03:03:36.055Z,99.99
2016-02-26T03:04:19.945Z,99.99
2016-02-26T03:05:19.938Z,99.99
2016-02-26T03:06:32.693Z,99.99
2016-02-26T03:07:39.164Z,99.99
2016-02-26T03:08:45.651Z,99.99
2016-02-26T03:09:51.280Z,99.99
2016-02-26T03:10:19.967Z,99.99
2016-02-26T03:12:32.756Z,99.99
2016-02-26T03:13:20.022Z,99.99
2016-02-26T03:14:20.041Z,99.99
2016-02-26T03:15:32.780Z,99.99
2016-02-26T03:16:20.046Z,99.99
2016-02-26T03:17:39.254Z,99.99
2016-02-26T03:18:32.804Z,99.99
2016-02-26T03:19:20.101Z,99.99
2016-02-26T03:20:20.713Z,99.99
2016-02-26T03:21:20.107Z,99.99
2016-02-26T03:22:20.109Z,99.99
2016-02-26T03:23:20.143Z,99.99
2016-02-26T03:24:20.145Z,99.99
2016-02-26T03:25:20.774Z,99.99
2016-02-26T03:26:20.760Z,99.99
2016-02-26T03:27:20.169Z,99.99
2016-02-26T03:28:20.390Z,99.99
2016-02-26T03:29:32.912Z,99.99
2016-02-26T03:30:26.474Z,99.99
2016-02-26T03:31:39.417Z,99.99
2016-02-26T03:32:32.967Z,99.99
2016-02-26T03:33:45.922Z,99.99
2016-02-26T03:34:39.472Z,99.99
2016-02-26T03:35:51.584Z,99.99
2016-02-26T03:36:20.881Z,99.99
2016-02-26T03:38:29.824Z,99.99
2016-02-26T03:39:29.826Z,99.99
2016-02-26T03:40:30.454Z,99.99
2016-02-26T03:41:42.647Z,99.99
2016-02-26T03:42:42.603Z,99.99
2016-02-26T03:43:49.075Z,99.99
2016-02-26T03:44:49.124Z,99.99
2016-02-26T03:45:29.874Z,99.99
2016-02-26T03:46:55.597Z,99.99
2016-02-26T03:47:39.679Z,99.99
2016-02-26T03:49:05.369Z,99.99
2016-02-26T03:49:39.715Z,99.99
2016-02-26T03:50:39.750Z,99.99
2016-02-26T03:51:39.721Z,99.99
2016-02-26T03:52:39.738Z,99.99
2016-02-26T03:53:41.163Z,99.99
2016-02-26T03:54:39.760Z,99.99
2016-02-26T03:55:39.763Z,99.99
2016-02-26T03:56:39.782Z,99.99
2016-02-26T03:57:41.409Z,99.99
2016-02-26T03:58:39.802Z,99.99
2016-02-26T03:59:52.554Z,99.99
2016-02-26T04:00:39.932Z,99.99
2016-02-26T04:01:52.623Z,99.99
2016-02-26T04:02:39.860Z,99.99
2016-02-26T04:03:52.597Z,99.99
2016-02-26T04:04:39.865Z,99.99
2016-02-26T04:05:52.633Z,99.99
2016-02-26T04:06:39.886Z,99.99
2016-02-26T04:07:39.889Z,99.99
2016-02-26T04:08:39.891Z,99.99
2016-02-26T04:09:59.128Z,99.99
2016-02-26T04:10:43.022Z,99.99
2016-02-26T04:11:43.024Z,99.99
2016-02-26T04:12:43.042Z,99.99
2016-02-26T04:13:52.593Z,99.99
2016-02-26T04:14:52.611Z,99.99
2016-02-26T04:16:05.364Z,99.99
2016-02-26T04:16:52.632Z,99.99
2016-02-26T04:18:11.838Z,99.99
2016-02-26T04:18:52.668Z,99.99
2016-02-26T04:20:18.327Z,99.99
2016-02-26T04:20:52.658Z,99.99
2016-02-26T04:22:23.989Z,99.99
2016-02-26T04:22:52.694Z,99.99
2016-02-26T04:23:52.697Z,99.99
2016-02-26T04:25:07.887Z,99.99
2016-02-26T04:26:07.890Z,99.99
2016-02-26T04:27:14.019Z,99.99
2016-02-26T04:28:07.927Z,99.99
2016-02-26T04:29:27.149Z,99.99
2016-02-26T04:30:08.042Z,99.99
2016-02-26T04:31:33.826Z,99.99
2016-02-26T04:32:17.922Z,99.99
2016-02-26T04:33:37.006Z,99.99
2016-02-26T04:34:24.084Z,99.99
2016-02-26T04:35:44.933Z,99.99
2016-02-26T04:36:30.573Z,99.99
2016-02-26T04:38:24.125Z,99.99
2016-02-26T04:39:17.878Z,99.99
2016-02-26T04:40:37.072Z,99.99
2016-02-26T04:41:18.087Z,99.99
2016-02-26T04:42:43.561Z,99.99
2016-02-26T04:43:17.873Z,99.99
2016-02-26T04:45:58.726Z,99.99
2016-02-26T04:46:33.054Z,99.99
2016-02-26T04:48:33.950Z,99.99
2016-02-26T04:49:33.093Z,99.99
2016-02-26T04:50:45.848Z,99.99
2016-02-26T04:51:33.129Z,99.99
2016-02-26T04:52:58.792Z,99.99
2016-02-26T04:53:33.151Z,99.99
2016-02-26T04:55:04.452Z,99.99
2016-02-26T04:55:45.737Z,99.99
2016-02-26T04:57:08.442Z,99.99
2016-02-26T04:57:46.696Z,99.99
2016-02-26T04:59:43.716Z,99.99
2016-02-26T05:00:08.263Z,99.99
2016-02-26T05:00:55.391Z,99.99
2016-02-26T05:01:55.565Z,99.99
2016-02-26T05:02:55.552Z,99.99
2016-02-26T05:06:01.894Z,99.99
2016-02-26T05:07:17.085Z,99.99
2016-02-26T05:08:17.087Z,99.99
2016-02-26T05:09:17.121Z,99.99
2016-02-26T05:10:29.859Z,99.99
2016-02-26T05:11:29.908Z,99.99
2016-02-26T05:12:17.145Z,99.99
2016-02-26T05:13:36.370Z,99.99
2016-02-26T05:14:17.166Z,99.99
2016-02-26T05:15:48.484Z,99.99
2016-02-26T05:16:32.484Z,99.99
2016-02-26T05:17:32.502Z,99.99
2016-02-26T05:19:03.804Z,99.99
2016-02-26T05:19:42.073Z,99.99
2016-02-26T05:20:42.091Z,99.99
2016-02-26T05:21:51.641Z,99.99
2016-02-26T05:22:51.659Z,99.99
2016-02-26T05:25:32.492Z,99.99
2016-02-26T05:26:06.870Z,99.99
2016-02-26T05:27:38.157Z,99.99
2016-02-26T05:28:47.706Z,99.99
2016-02-26T05:29:22.128Z,99.99
2016-02-26T05:32:03.511Z,99.99
2016-02-26T05:32:37.841Z,99.99
2016-02-26T05:33:37.844Z,99.99
2016-02-26T05:34:50.613Z,99.99
2016-02-26T05:35:37.882Z,99.99
2016-02-26T05:37:03.572Z,99.99
2016-02-26T05:37:47.465Z,99.99
2016-02-26T05:38:47.468Z,99.99
2016-02-26T05:39:47.517Z,99.99
2016-02-26T05:40:47.488Z,99.99
2016-02-26T05:41:47.522Z,99.99
2016-02-26T05:42:47.540Z,99.99
2016-02-26T05:43:47.731Z,99.99
2016-02-26T05:45:00.281Z,99.99
2016-02-26T05:46:00.299Z,99.99
2016-02-26T05:47:13.239Z,99.99
2016-02-26T05:48:06.789Z,99.99
2016-02-26T05:49:21.995Z,99.99
2016-02-26T05:50:34.763Z,99.99
2016-02-26T05:51:22.031Z,99.99
2016-02-26T05:52:47.725Z,99.99
2016-02-26T05:53:22.037Z,99.99
2016-02-26T05:54:22.149Z,99.99
2016-02-26T05:55:34.808Z,99.99
2016-02-26T05:56:22.060Z,99.99
2016-02-26T05:57:47.769Z,99.99
2016-02-26T05:58:31.644Z,99.99
2016-02-26T05:59:50.883Z,99.99
2016-02-26T06:00:37.946Z,99.99
2016-02-26T06:01:57.358Z,99.99
2016-02-26T06:02:50.892Z,99.99
2016-02-26T06:04:12.363Z,99.99
2016-02-26T06:05:05.944Z,99.99
2016-02-26T06:06:18.884Z,99.99
2016-02-26T06:07:06.152Z,99.99
2016-02-26T06:08:25.468Z,99.99
2016-02-26T06:09:06.174Z,99.99
2016-02-26T06:10:31.941Z,99.99
2016-02-26T06:11:16.023Z,99.99
2016-02-26T06:12:35.243Z,99.99
2016-02-26T06:13:16.074Z,99.99
2016-02-26T06:14:41.737Z,99.99
2016-02-26T06:15:16.096Z,99.99
2016-02-26T06:16:16.099Z,99.99
2016-02-26T06:17:16.101Z,99.99
2016-02-26T06:18:16.120Z,99.99
2016-02-26T06:19:16.137Z,99.99
2016-02-26T06:20:16.140Z,99.99
2016-02-26T06:21:28.970Z,99.99
2016-02-26T06:22:16.162Z,99.99
2016-02-26T06:23:41.839Z,99.99
2016-02-26T06:24:25.729Z,99.99
2016-02-26T06:25:51.422Z,99.99
2016-02-26T06:27:37.925Z,99.99
2016-02-26T06:28:37.927Z,99.99
2016-02-26T06:30:03.636Z,99.99
2016-02-26T06:30:50.702Z,99.99
2016-02-26T06:32:10.688Z,99.99
2016-02-26T06:32:57.613Z,99.99
2016-02-26T06:33:54.584Z,99.99
2016-02-26T06:34:54.603Z,99.99
2016-02-26T06:36:13.824Z,99.99
2016-02-26T06:36:54.624Z,99.99
2016-02-26T06:39:09.832Z,99.99
2016-02-26T06:40:09.850Z,99.99
2016-02-26T06:41:41.247Z,99.99
2016-02-26T06:42:50.823Z,99.99
2016-02-26T06:43:25.167Z,99.99
2016-02-26T06:44:56.469Z,99.99
2016-02-26T06:45:34.985Z,99.99
2016-02-26T06:47:31.959Z,99.99
2016-02-26T06:47:56.789Z,99.99
2016-02-26T06:50:43.923Z,99.99
2016-02-26T06:52:08.988Z,99.99
2016-02-26T06:53:18.538Z,99.99
2016-02-26T06:53:52.885Z,99.99
2016-02-26T06:54:52.888Z,99.99
2016-02-26T06:56:02.515Z,99.99
2016-02-26T06:57:12.063Z,99.99
2016-02-26T06:58:21.660Z,99.99
2016-02-26T06:59:47.322Z,99.99
2016-02-26T07:00:31.213Z,99.99
2016-02-26T07:01:50.421Z,99.99
2016-02-26T07:02:31.234Z,99.99
2016-02-26T07:04:40.786Z,99.99
2016-02-26T07:07:23.107Z,99.99
2016-02-26T07:07:57.516Z,99.99
2016-02-26T07:08:57.456Z,99.99
2016-02-26T07:09:57.489Z,99.99
2016-02-26T07:10:57.492Z,99.99
2016-02-26T07:11:57.496Z,99.99
2016-02-26T07:12:57.514Z,99.99
2016-02-26T07:14:10.267Z,99.99
2016-02-26T07:14:57.534Z,99.99
2016-02-26T07:16:16.756Z,99.99
2016-02-26T07:16:57.774Z,99.99
2016-02-26T07:18:23.230Z,99.99
2016-02-26T07:18:57.576Z,99.99
2016-02-26T07:19:57.595Z,99.99
2016-02-26T07:21:07.161Z,99.99
2016-02-26T07:22:07.178Z,99.71
2016-02-26T07:23:13.463Z,99.52
2016-02-26T07:24:07.183Z,99.15
2016-02-26T07:25:07.203Z,99.62
2016-02-26T07:26:07.221Z,99.24
2016-02-26T07:27:07.239Z,98.48
2016-02-26T07:28:19.976Z,98.86
2016-02-26T07:29:07.463Z,98.67
2016-02-26T07:30:26.465Z,99.33
2016-02-26T07:31:07.296Z,99.52
2016-02-26T07:32:07.298Z,99.99
2016-02-26T07:33:07.318Z,99.71
2016-02-26T07:34:07.321Z,99.99
2016-02-26T07:35:07.338Z,99.47
2016-02-26T07:36:20.091Z,99.52
2016-02-26T07:37:20.093Z,99.99
2016-02-26T07:38:07.393Z,99.99
2016-02-26T07:39:20.334Z,99.99
2016-02-26T07:40:13.680Z,99.99
2016-02-26T07:41:33.307Z,99.15
2016-02-26T07:42:17.326Z,99.15
2016-02-26T07:43:43.016Z,99.05
2016-02-26T07:44:17.347Z,99.15
2016-02-26T07:45:49.275Z,99.33
2016-02-26T07:46:27.509Z,99.47
2016-02-26T07:47:27.528Z,99.15
2016-02-26T07:48:27.545Z,99.33
2016-02-26T07:49:27.548Z,99.15
2016-02-26T07:50:27.566Z,99.24
2016-02-26T07:51:40.319Z,99.15
2016-02-26T07:52:28.180Z,99.05
2016-02-26T07:53:46.811Z,99.33
2016-02-26T07:54:27.608Z,99.33
2016-02-26T07:55:53.332Z,99.99
2016-02-26T07:56:37.238Z,99.71
2016-02-26T07:57:59.587Z,98.96
2016-02-26T07:58:46.841Z,99.33
2016-02-26T08:00:06.172Z,98.39
2016-02-26T08:02:31.443Z,97.77
2016-02-26T08:03:31.445Z,99.38
2016-02-26T08:04:31.463Z,98.53
2016-02-26T08:05:37.746Z,97.39
2016-02-26T08:06:31.484Z,96.92
2016-02-26T08:07:50.709Z,95.4
2016-02-26T08:08:31.365Z,96.07
2016-02-26T08:09:57.198Z,96.16
2016-02-26T08:10:37.839Z,96.45
2016-02-26T08:12:02.860Z,95.59
2016-02-26T08:12:34.688Z,95.03
2016-02-26T08:14:06.006Z,94.18
2016-02-26T08:14:44.271Z,93.89
2016-02-26T08:16:09.964Z,93.8
2016-02-26T08:16:48.233Z,94.08
2016-02-26T08:19:30.519Z,93.13
2016-02-26T08:20:04.850Z,93.75
2016-02-26T08:21:36.275Z,94.04
2016-02-26T08:22:45.858Z,93.94
2016-02-26T08:23:20.233Z,92.71
2016-02-26T08:25:35.395Z,93.04
2016-02-26T08:26:35.428Z,93.51
2016-02-26T08:27:35.431Z,92.85
2016-02-26T08:28:35.466Z,94.18
2016-02-26T08:29:41.733Z,93.99
2016-02-26T08:30:35.471Z,93.89
2016-02-26T08:31:48.444Z,94.18
2016-02-26T08:32:36.898Z,92.94
2016-02-26T08:34:01.185Z,92.94
2016-02-26T08:35:10.734Z,92.38
2016-02-26T08:35:45.077Z,93.42
2016-02-26T08:38:13.007Z,94.08
2016-02-26T08:39:13.026Z,93.89
2016-02-26T08:40:25.856Z,93.51
2016-02-26T08:41:13.047Z,93.89
2016-02-26T08:42:38.956Z,93.99
2016-02-26T08:43:22.849Z,93.42
2016-02-26T08:44:22.867Z,94.08
2016-02-26T08:45:54.826Z,93.13
2016-02-26T08:47:04.392Z,92.29
2016-02-26T08:47:42.642Z,91
2016-02-26T08:48:42.644Z,90.11
2016-02-26T08:50:58.480Z,89.2
2016-02-26T08:51:58.483Z,89.35
2016-02-26T08:53:11.236Z,89.01
2016-02-26T08:54:04.769Z,88.73
2016-02-26T08:55:17.756Z,88.26
2016-02-26T08:56:17.744Z,88.26
2016-02-26T08:57:39.231Z,87.12
2016-02-26T08:58:32.968Z,86.27
2016-02-26T08:59:45.721Z,85.8
2016-02-26T09:00:45.739Z,85.32
2016-02-26T09:03:01.778Z,84.47
2016-02-26T09:05:17.455Z,85.13
2016-02-26T09:06:17.505Z,84.94
2016-02-26T09:07:23.774Z,84.56
2016-02-26T09:08:48.826Z,84.56
2016-02-26T09:09:27.732Z,84.32
2016-02-26T09:11:48.787Z,82.71
2016-02-26T09:12:48.805Z,82.33
2016-02-26T09:13:49.026Z,82.43
2016-02-26T09:14:48.826Z,82.14
2016-02-26T09:15:48.860Z,82.33
2016-02-26T09:16:48.895Z,82.05
2016-02-26T09:17:55.803Z,82.81
2016-02-26T09:19:01.618Z,83
2016-02-26T09:20:08.340Z,83.47
2016-02-26T09:20:48.905Z,82.71
2016-02-26T09:21:48.939Z,83
2016-02-26T09:23:14.628Z,82.62
2016-02-26T09:23:58.522Z,82.05
2016-02-26T09:24:58.759Z,82.14
2016-02-26T09:26:04.918Z,82.14
2016-02-26T09:26:58.577Z,82.24
2016-02-26T09:28:17.783Z,80.82
2016-02-26T09:29:11.364Z,80.29
2016-02-26T09:30:29.913Z,79.53
2016-02-26T09:31:13.807Z,79.63
2016-02-26T09:32:13.825Z,79.72
2016-02-26T09:33:13.827Z,79.53
2016-02-26T09:34:13.830Z,78.96
2016-02-26T09:35:20.724Z,79.25
2016-02-26T09:36:26.726Z,79.91
2016-02-26T09:37:26.635Z,79.63
2016-02-26T09:40:13.987Z,78.87
2016-02-26T09:43:26.401Z,79.72
2016-02-26T09:44:52.156Z,80
2016-02-26T09:45:36.015Z,79.06
2016-02-26T09:46:45.566Z,78.49
2016-02-26T09:47:45.646Z,78.3
2016-02-26T09:48:45.820Z,78.2
2016-02-26T09:49:51.904Z,77.77
2016-02-26T09:51:04.845Z,76.25
2016-02-26T09:52:04.864Z,75.96
2016-02-26T09:53:20.038Z,75.96
2016-02-26T09:54:10.306Z,75.4
2016-02-26T09:55:10.325Z,74.83
2016-02-26T09:56:36.015Z,75.21
2016-02-26T09:57:19.955Z,75.4
2016-02-26T09:58:45.614Z,75.11
2016-02-26T09:59:29.741Z,75.87
2016-02-26T10:00:29.760Z,75.96
2016-02-26T10:02:01.077Z,75.59
2016-02-26T10:02:44.983Z,75.11
2016-02-26T10:03:45.064Z,75.31
2016-02-26T10:04:57.726Z,74.54
2016-02-26T10:05:57.744Z,73.72
2016-02-26T10:07:10.716Z,72.49
2016-02-26T10:07:45.075Z,72.4
2016-02-26T10:08:45.062Z,72.11
2016-02-26T10:09:45.065Z,72.21
2016-02-26T10:11:16.399Z,73.16
2016-02-26T10:12:25.963Z,72.97
2016-02-26T10:13:00.341Z,72.88
2016-02-26T10:14:31.641Z,72.4
2016-02-26T10:15:15.769Z,72.02
2016-02-26T10:16:15.803Z,71.73
2016-02-26T10:17:22.084Z,71.17
2016-02-26T10:18:28.544Z,71.11
2016-02-26T10:19:35.018Z,70.44
2016-02-26T10:20:31.668Z,70.15
2016-02-26T10:21:44.597Z,69.87
2016-02-26T10:23:50.319Z,70.15
2016-02-26T10:24:34.225Z,70.25
2016-02-26T10:25:34.254Z,69.4
2016-02-26T10:26:34.440Z,69.11
2016-02-26T10:27:34.861Z,68.73
2016-02-26T10:28:47.034Z,67.79
2016-02-26T10:29:47.082Z,68.83
2016-02-26T10:30:34.317Z,68.26
2016-02-26T10:31:53.523Z,67.69
2016-02-26T10:33:49.572Z,67.91
2016-02-26T10:34:49.575Z,67.44
2016-02-26T10:36:20.907Z,67.82
2016-02-26T10:37:04.815Z,67.06
2016-02-26T10:38:04.833Z,67.25
2016-02-26T10:40:20.885Z,67.97
2016-02-26T10:41:20.668Z,69.53
2016-02-26T10:42:52.015Z,67.79
2016-02-26T10:43:30.330Z,67.72
2016-02-26T10:45:01.648Z,66.87
2016-02-26T10:46:11.385Z,67.06
2016-02-26T10:46:45.745Z,66.39
2016-02-26T10:48:55.346Z,65.63
2016-02-26T10:49:55.348Z,66.2
2016-02-26T10:51:04.899Z,65.92
2016-02-26T10:52:04.917Z,65.73
2016-02-26T10:53:36.232Z,66.96
2016-02-26T10:54:46.391Z,66.11
2016-02-26T10:55:20.784Z,65.73
2016-02-26T10:56:52.068Z,66.58
2016-02-26T10:57:35.946Z,66.77
2016-02-26T10:58:55.186Z,66.39
2016-02-26T10:59:35.983Z,66.39
2016-02-26T11:01:46.972Z,66.39
2016-02-26T11:02:46.975Z,66.11
2016-02-26T11:05:02.405Z,66.49
2016-02-26T11:06:02.423Z,66.39
2016-02-26T11:07:08.691Z,66.49
2016-02-26T11:08:08.709Z,66.3
2016-02-26T11:09:08.744Z,67.34
2016-02-26T11:10:15.216Z,68.07
2016-02-26T11:11:08.765Z,68.92
2016-02-26T11:12:21.782Z,67.59
2016-02-26T11:13:18.458Z,67.25
2016-02-26T11:16:05.809Z,67.63
2016-02-26T11:17:31.531Z,65.82
2016-02-26T11:18:46.753Z,66.08
2016-02-26T11:19:46.755Z,67.21
2016-02-26T11:20:48.195Z,66.83
2016-02-26T11:22:05.997Z,67.31
2016-02-26T11:22:59.547Z,67.97
2016-02-26T11:24:18.127Z,68.92
2016-02-26T11:25:02.896Z,68.44
2016-02-26T11:27:18.495Z,69.4
2016-02-26T11:28:05.763Z,69.4
2016-02-26T11:29:31.470Z,68.35
2016-02-26T11:30:46.816Z,68.64
2016-02-26T11:31:37.959Z,68.83
2016-02-26T11:32:50.040Z,68.92
2016-02-26T11:33:41.074Z,68.64
2016-02-26T11:35:49.798Z,67.12
2016-02-26T11:36:37.097Z,67.69
2016-02-26T11:38:21.963Z,67.72
2016-02-26T11:38:37.713Z,68.1
2016-02-26T11:39:37.138Z,68.01
2016-02-26T11:40:49.921Z,67.44
2016-02-26T11:41:37.532Z,67.25
2016-02-26T11:42:37.208Z,66.87
2016-02-26T11:43:37.210Z,66.2
2016-02-26T11:44:56.418Z,66.49
2016-02-26T11:45:37.231Z,65.63
2016-02-26T11:46:37.359Z,66.11
2016-02-26T11:47:37.440Z,64.43
2016-02-26T11:49:02.976Z,65.09
2016-02-26T11:49:47.054Z,64.05
2016-02-26T11:51:06.076Z,63.86
2016-02-26T11:53:49.190Z,63.01
2016-02-26T11:54:49.225Z,63.67
2016-02-26T11:55:49.259Z,64.34
2016-02-26T11:57:01.998Z,64.49
2016-02-26T11:57:49.279Z,65.73
2016-02-26T11:59:14.956Z,66.01
2016-02-26T11:59:49.331Z,65.92
2016-02-26T12:01:20.821Z,65.16
2016-02-26T12:01:49.946Z,65.25
2016-02-26T12:02:49.652Z,64.59
2016-02-26T12:04:02.110Z,63.92
2016-02-26T12:04:50.001Z,63.07
2016-02-26T12:06:15.116Z,62.05
2016-02-26T12:07:24.744Z,62.53
2016-02-26T12:07:59.058Z,62.15
2016-02-26T12:08:59.077Z,61.77
2016-02-26T12:09:59.173Z,62.15
2016-02-26T12:10:59.160Z,61.39
2016-02-26T12:11:59.132Z,61.99
2016-02-26T12:13:11.900Z,61.23
2016-02-26T12:14:11.934Z,61.32
2016-02-26T12:15:18.624Z,61.52
2016-02-26T12:15:59.237Z,61.48
2016-02-26T12:16:59.254Z,62.62
2016-02-26T12:18:08.882Z,62.53
2016-02-26T12:19:09.120Z,62.62
2016-02-26T12:20:15.200Z,62.91
2016-02-26T12:21:08.953Z,62.43
2016-02-26T12:22:28.175Z,63.04
2016-02-26T12:23:15.255Z,61.71
2016-02-26T12:24:34.867Z,61.52
2016-02-26T12:25:09.042Z,60.94
2016-02-26T12:27:24.250Z,59.61
2016-02-26T12:28:24.284Z,59.42
2016-02-26T12:30:39.727Z,59.14
2016-02-26T12:31:39.511Z,58.37
2016-02-26T12:32:39.561Z,59.8
2016-02-26T12:33:39.783Z,59.55
2016-02-26T12:34:52.316Z,58.22
2016-02-26T12:35:39.631Z,58.03
2016-02-26T12:36:58.933Z,58.22
2016-02-26T12:37:40.215Z,58.59
2016-02-26T12:38:59.080Z,57.17
2016-02-26T12:39:47.486Z,56.63
2016-02-26T12:41:05.288Z,55.29
2016-02-26T12:41:49.132Z,56.92
2016-02-26T12:43:11.810Z,56.53
2016-02-26T12:43:52.450Z,56.15
2016-02-26T12:45:11.987Z,54.53
2016-02-26T12:46:05.489Z,56.63
2016-02-26T12:48:27.307Z,56.72
2016-02-26T12:49:21.450Z,55.2
2016-02-26T12:50:33.687Z,54.72
2016-02-26T12:51:21.221Z,54.82
2016-02-26T12:52:21.193Z,54.82
2016-02-26T12:53:21.023Z,56.31
2016-02-26T12:54:21.261Z,56.7
2016-02-26T12:55:21.060Z,55.77
2016-02-26T12:56:33.812Z,54.69
2016-02-26T12:57:21.112Z,54.72
2016-02-26T12:58:47.037Z,54.53
2016-02-26T12:59:21.180Z,54.6
2016-02-26T13:00:21.152Z,55.65
2016-02-26T13:01:21.264Z,55.74
2016-02-26T13:02:21.172Z,56.03
2016-02-26T13:03:21.254Z,56.7
2016-02-26T13:04:21.255Z,57.62
2016-02-26T13:05:21.258Z,57.9
2016-02-26T13:06:21.339Z,58.66
2016-02-26T13:07:21.702Z,59.61
2016-02-26T13:08:21.329Z,60.18
2016-02-26T13:09:21.347Z,60.06
2016-02-26T13:10:21.350Z,59.87
2016-02-26T13:11:21.368Z,60.72
2016-02-26T13:12:21.387Z,60.98
2016-02-26T13:13:21.577Z,61.36
2016-02-26T13:14:21.673Z,62.5
2016-02-26T13:15:21.457Z,63.17
2016-02-26T13:16:21.460Z,63.73
2016-02-26T13:17:21.729Z,64.27
2016-02-26T13:18:21.559Z,65.03
2016-02-26T13:19:21.532Z,65.79
2016-02-26T13:20:21.534Z,65.5
2016-02-26T13:21:21.583Z,66.27
2016-02-26T13:22:21.601Z,66.93
2016-02-26T13:23:22.041Z,67.18
2016-02-26T13:24:21.670Z,67.18
2016-02-26T13:25:21.890Z,67.18
2016-02-26T13:26:21.737Z,67.08
2016-02-26T13:27:21.724Z,66.99
2016-02-26T13:28:21.727Z,67.18
2016-02-26T13:29:21.965Z,67.65
2016-02-26T13:30:21.779Z,67.12
2016-02-26T13:31:22.031Z,66.36
2016-02-26T13:32:21.800Z,65.69
2016-02-26T13:33:21.834Z,65.6
2016-02-26T13:34:22.087Z,65.5
2016-02-26T13:35:22.012Z,65.12
2016-02-26T13:36:21.842Z,64.46
2016-02-26T13:37:21.861Z,64.46
2016-02-26T13:38:21.879Z,65.41
2016-02-26T13:39:28.178Z,65.69
2016-02-26T13:40:22.041Z,65.88
2016-02-26T13:41:41.372Z,65.5
2016-02-26T13:42:21.999Z,65.41
2016-02-26T13:43:21.955Z,65.79
2016-02-26T13:44:22.009Z,66.14
2016-02-26T13:45:22.449Z,65.28
2016-02-26T13:46:22.030Z,65.47
2016-02-26T13:47:22.049Z,65
2016-02-26T13:48:22.723Z,64.71
2016-02-26T13:49:22.898Z,64.9
2016-02-26T13:50:23.728Z,64.81
2016-02-26T13:51:22.106Z,64.62
2016-02-26T13:52:22.172Z,65.56
2016-02-26T13:53:22.206Z,65.47
2016-02-26T13:54:41.396Z,66.14
2016-02-26T13:55:25.352Z,65.75
2016-02-26T13:56:25.745Z,65.66
2016-02-26T13:57:25.389Z,65.66
2016-02-26T13:58:25.454Z,65.75
2016-02-26T13:59:25.472Z,65.75
2016-02-26T14:00:25.678Z,66.71
2016-02-26T14:01:25.509Z,67.18
2016-02-26T14:02:25.730Z,67.27
2016-02-26T14:03:25.498Z,68.51
2016-02-26T14:04:25.533Z,68.32
2016-02-26T14:05:25.956Z,68.32
2016-02-26T14:06:25.788Z,66.33
2016-02-26T14:07:25.603Z,65.6
2016-02-26T14:08:25.590Z,65.03
2016-02-26T14:09:25.655Z,64.75
2016-02-26T14:10:25.611Z,63.6
2016-02-26T14:11:25.708Z,63.98
2016-02-26T14:12:25.913Z,64.37
2016-02-26T14:13:25.697Z,63.51
2016-02-26T14:14:25.731Z,63.7
2016-02-26T14:15:25.780Z,62.94
2016-02-26T14:16:26.610Z,61.61
2016-02-26T14:17:25.754Z,60.85